Aplicació Alertes

Dades de l'estació automàtica Pantà de Riba-roja

?
?
Resum diari 23:00 TU
Dades diàries de l'estació meteorològica
Temperatura mitjana 15.8 °C
Temperatura màxima 19.8 °C 13:59 TU
Temperatura mínima 14.1 °C 4:25 TU
Humitat relativa mitjana 57%
Precipitació acumulada 0.0 mm
Ratxa màxima del vent (2 m) 57.2 km/h - 262º 11:44 TU
Irradiació solar global 8.8 MJ/m2

El tram horari està expressat en Temps Universal (TU). Cal sumar una hora en horari d'hivern i dues en horari d'estiu per passar a l'hora oficial.

Pantà de Riba-roja

Metadades estació meteorol´gica
Municipi Riba-roja d'Ebre
Comarca Ribera d'Ebre
Altitud 69 m
Data alta 18.11.1996
Estat actual Operativa
Dades de període
Període
TU
TM
°C
TX
°C
TN
°C
HRM
%
PPT
mm
VVM (2 m)
km/h
DVM (2 m)
graus
VVX (2 m)
km/h
RS
W/m2
00:00 - 00:30 14.4 14.6 14.3 54 0.0 20.5 258 40.7 0
00:30 - 01:00 14.7 14.8 14.5 55 0.0 23.0 260 48.2 0
01:00 - 01:30 14.7 14.8 14.6 56 0.0 21.6 262 42.8 0
01:30 - 02:00 14.7 14.8 14.6 56 0.0 18.0 257 40.7 0
02:00 - 02:30 14.5 14.7 14.3 55 0.0 16.2 253 42.8 0
02:30 - 03:00 14.5 14.6 14.4 56 0.0 15.1 249 36.7 0
03:00 - 03:30 14.5 14.6 14.3 56 0.0 15.1 247 35.6 0
03:30 - 04:00 14.4 14.5 14.3 58 0.0 16.2 252 33.5 0
04:00 - 04:30 14.2 14.4 14.1 59 0.0 16.9 257 38.9 0
04:30 - 05:00 14.3 14.4 14.2 59 0.0 19.4 259 45.0 0
05:00 - 05:30 14.4 14.5 14.3 59 0.0 16.6 253 36.0 0
05:30 - 06:00 14.5 14.6 14.3 60 0.0 17.3 252 35.6 0
06:00 - 06:30 14.4 14.5 14.2 61 0.0 20.5 256 44.3 0
06:30 - 07:00 14.3 14.5 14.2 60 0.0 24.1 260 43.6 0
07:00 - 07:30 14.6 14.8 14.5 59 0.0 25.9 259 51.5 3
07:30 - 08:00 14.6 14.7 14.6 59 0.0 25.2 257 49.3 14
08:00 - 08:30 14.7 14.8 14.6 59 0.0 25.6 260 51.5 35
08:30 - 09:00 14.6 14.7 14.4 60 0.0 25.9 258 47.9 40
09:00 - 09:30 14.4 14.5 14.3 61 0.0 19.8 256 43.9 49
09:30 - 10:00 14.5 14.7 14.4 61 0.0 14.4 254 35.6 54
10:00 - 10:30 15.0 15.4 14.6 60 0.0 16.6 252 39.2 99
10:30 - 11:00 15.9 16.6 15.4 58 0.0 21.6 257 44.3 224
11:00 - 11:30 17.0 17.2 16.7 55 0.0 24.1 254 46.8 528
11:30 - 12:00 17.4 17.6 17.2 54 0.0 25.9 256 57.2 558
12:00 - 12:30 17.8 18.0 17.6 53 0.0 24.1 256 48.2 558
12:30 - 13:00 18.0 18.1 17.8 52 0.0 26.3 254 46.1 476
13:00 - 13:30 18.5 19.0 18.1 51 0.0 26.6 254 54.7 520
13:30 - 14:00 19.4 19.8 19.1 48 0.0 27.0 259 50.0 504
14:00 - 14:30 19.7 19.8 19.6 46 0.0 27.7 260 53.3 419
14:30 - 15:00 19.7 19.8 19.5 46 0.0 27.4 261 51.8 343
15:00 - 15:30 19.4 19.5 19.1 47 0.0 26.3 257 49.0 263
15:30 - 16:00 18.9 19.1 18.7 49 0.0 26.3 258 55.4 165
16:00 - 16:30 18.1 18.7 17.8 53 0.0 24.1 256 44.6 38
16:30 - 17:00 17.6 17.9 17.3 53 0.0 24.1 261 49.7 12
17:00 - 17:30 17.0 17.3 16.7 55 0.0 23.0 257 49.0 2
17:30 - 18:00 16.5 16.7 16.4 56 0.0 15.8 250 33.8 0
18:00 - 18:30 16.2 16.4 16.0 58 0.0 15.5 245 37.4 0
18:30 - 19:00 15.9 16.0 15.8 59 0.0 16.6 243 43.9 0
19:00 - 19:30 15.7 15.9 15.6 60 0.0 15.1 243 39.2 0
19:30 - 20:00 15.5 15.6 15.4 60 0.0 11.2 245 30.6 0
20:00 - 20:30 15.4 15.5 15.2 60 0.0 11.2 251 30.2 0
20:30 - 21:00 15.2 15.3 15.0 61 0.0 11.9 251 32.8 0
21:00 - 21:30 15.0 15.1 14.9 62 0.0 11.5 250 28.1 0
21:30 - 22:00 14.9 15.1 14.8 62 0.0 15.1 255 38.5 0
22:00 - 22:30 15.0 15.2 14.9 61 0.0 20.5 256 51.1 0
22:30 - 23:00 14.8 15.0 14.7 63 0.0 14.8 251 37.1 0
23:00 - 23:30 14.6 14.8 14.5 64 0.0 11.5 259 29.2 0

Les dades en taronja només han passat un control de qualitat automàtic. Resta pendent la seva validació definitiva.